Startpagina
METAR-TAF:

METAR-TAF

Vliegvelden :

Neuquén, Argentinië

breedte: 38-57S, lengte: 068-08W, hoogte: 270 m

Actueel weer

Dit bericht is 1 uur en het 34 minuten geleden gemaakt, om 03:00 UTC
Weinig wind
Temperatuur 13°C
Vochtigheid 82%
Druk 1015 hPa
Zicht 10 km of meer
geen wolken onder 1500 m en geen cumulonimbus

METAR: SAZN 120300Z 00000KT CAVOK 13/10 Q1015

Tijdstip: 01:34 (04:34 UTC)

Verwachting

Dit bericht is 5 uur en het 34 minuten geleden gemaakt, om 23:00 UTC
Verwachting geldig van 12 om 00 UTC tot 12 om 24 UTC
Wind 3 kt uit variabele richting
Zicht 10 km of meer
geen wolken onder 1500 m en geen cumulonimbus

TAF: SAZN 112300Z 1200/1224 VRB03KT CAVOK TX25/1220Z TN12/1210Z

Waarnemingen en weersverwachtingen van meer dan 4000 vliegvelden (METAR en TAF).

De beschikbare stations zijn de gele en rode punten op de kaart.

Ga met uw muis naar het station om de naam te zien.

Klik dan om waarnemingen en weersverwachtingen te zien.

kaart wijzigen: klik op de groene knoppen met een zwart kruis om in te zoomen, op de groene knop met een streepje om uit te zoomen of op de groene pijlen voor aangrenzende kaarten.


METAR-TAF: